createdAt,value
2023-04-17T00:03:16.972Z,10.85
2023-04-17T00:13:17.788Z,12.28
2023-04-17T00:23:17.802Z,9.30
2023-04-17T00:33:17.790Z,13.12
2023-04-17T00:43:17.818Z,7.47
2023-04-17T00:53:17.804Z,11.01
2023-04-17T01:03:17.996Z,14.07
2023-04-17T01:13:19.597Z,15.59
2023-04-17T01:23:20.350Z,14.44
2023-04-17T01:33:21.040Z,14.15
2023-04-17T01:43:20.864Z,13.86
2023-04-17T01:53:21.401Z,13.66
2023-04-17T02:03:23.969Z,14.32
2023-04-17T02:13:23.913Z,16.13
2023-04-17T02:34:29.710Z,17.63
2023-04-17T02:44:30.193Z,14.20
2023-04-17T02:54:30.441Z,14.20
2023-04-17T03:04:33.053Z,10.76
2023-04-17T03:14:33.135Z,13.04
2023-04-17T03:24:33.793Z,10.09
2023-04-17T03:34:34.359Z,14.72
2023-04-17T03:44:34.200Z,13.67
2023-04-17T03:54:36.052Z,14.42
2023-04-17T04:04:38.172Z,15.08
2023-04-17T04:14:41.194Z,15.55
2023-04-17T04:24:40.595Z,15.07
2023-04-17T04:34:41.618Z,15.06
2023-04-17T04:44:43.136Z,16.77
2023-04-17T04:54:43.179Z,12.51
2023-04-17T05:04:43.717Z,16.58
2023-04-17T05:14:48.422Z,11.00
2023-04-17T05:24:50.085Z,9.87
2023-04-17T05:34:51.861Z,10.64
2023-04-17T05:44:52.248Z,15.23
2023-04-17T05:54:53.201Z,7.44
2023-04-17T06:04:53.853Z,7.28
2023-04-17T06:14:56.296Z,9.90
2023-04-17T06:24:56.801Z,17.13
2023-04-17T06:34:59.865Z,5.23
2023-04-17T06:45:01.372Z,19.23
2023-04-17T06:55:02.010Z,4.86
2023-04-17T07:05:02.409Z,9.93
2023-04-17T07:15:02.480Z,10.64
2023-04-17T07:25:02.340Z,12.51
2023-04-17T07:35:02.457Z,16.20
2023-04-17T07:45:02.380Z,16.91
2023-04-17T07:55:02.326Z,13.05
2023-04-17T08:05:02.526Z,2.19
2023-04-17T08:15:03.379Z,3.98
2023-04-17T08:25:05.263Z,4.28
2023-04-17T08:35:05.599Z,12.57
2023-04-17T08:45:05.843Z,3.39
2023-04-17T08:55:06.730Z,13.57
2023-04-17T09:05:07.183Z,4.49
2023-04-17T09:15:07.518Z,4.79
2023-04-17T09:25:08.074Z,2.50
2023-04-17T09:35:08.530Z,5.00
2023-04-17T09:45:08.530Z,3.20
2023-04-17T09:55:09.954Z,1.10
2023-04-17T10:05:10.672Z,2.50
2023-04-17T10:15:11.076Z,4.60
2023-04-17T10:25:12.104Z,6.00
2023-04-17T10:35:12.601Z,1.70
2023-04-17T10:45:12.664Z,2.80
2023-04-17T10:55:13.930Z,2.90
2023-04-17T11:05:13.638Z,1.20
2023-04-17T11:15:13.724Z,4.50
2023-04-17T11:25:13.617Z,6.30
2023-04-17T11:35:14.110Z,0.90
2023-04-17T11:45:14.760Z,1.70
2023-04-17T11:55:14.904Z,3.70
2023-04-17T12:05:14.891Z,1.00
2023-04-17T12:15:18.943Z,1.10
2023-04-17T12:25:18.707Z,3.40
2023-04-17T12:35:19.041Z,2.10
2023-04-17T12:45:18.853Z,3.20
2023-04-17T12:55:18.813Z,1.40
2023-04-17T13:05:18.934Z,1.00
2023-04-17T13:15:18.871Z,2.40
2023-04-17T13:25:18.813Z,1.20
2023-04-17T13:35:18.884Z,2.20
2023-04-17T13:45:18.988Z,1.60
2023-04-17T13:55:18.915Z,1.80
2023-04-17T14:05:18.954Z,0.90
2023-04-17T14:15:19.031Z,2.30
2023-04-17T14:25:18.955Z,3.90
2023-04-17T14:35:18.882Z,0.90
2023-04-17T14:45:19.064Z,2.00
2023-04-17T14:55:18.954Z,2.30
2023-04-17T15:05:20.527Z,2.80
2023-04-17T15:15:20.999Z,5.10
2023-04-17T15:25:24.074Z,4.50
2023-04-17T15:35:24.077Z,3.60
2023-04-17T15:45:25.517Z,1.30
2023-04-17T15:55:26.080Z,1.90
2023-04-17T16:05:26.143Z,3.60
2023-04-17T16:15:26.074Z,2.80
2023-04-17T16:25:26.141Z,1.70
2023-04-17T16:35:26.354Z,1.00
2023-04-17T16:45:26.276Z,1.60
2023-04-17T16:55:26.134Z,3.40
2023-04-17T17:05:26.385Z,2.70
2023-04-17T17:15:26.154Z,3.30
2023-04-17T17:25:26.153Z,2.30
2023-04-17T17:35:26.099Z,0.10
2023-04-17T17:45:26.312Z,3.10
2023-04-17T17:55:26.168Z,4.90
2023-04-17T18:05:26.240Z,2.40
2023-04-17T18:15:26.245Z,3.70
2023-04-17T18:25:26.188Z,3.20
2023-04-17T18:35:26.307Z,1.70
2023-04-17T18:45:27.498Z,2.60
2023-04-17T18:55:27.546Z,4.10
2023-04-17T19:05:27.274Z,1.90
2023-04-17T19:15:27.405Z,2.40
2023-04-17T19:25:27.326Z,2.00
2023-04-17T19:35:27.285Z,3.10
2023-04-17T19:45:27.439Z,4.69
2023-04-17T19:55:27.538Z,2.79
2023-04-17T20:05:34.394Z,3.99
2023-04-17T20:15:34.359Z,2.79
2023-04-17T20:25:34.362Z,4.29
2023-04-17T20:35:34.379Z,2.79
2023-04-17T20:45:34.479Z,2.39
2023-04-17T20:55:34.432Z,1.79
2023-04-17T21:05:34.402Z,3.78
2023-04-17T21:15:34.503Z,3.68
2023-04-17T21:25:35.318Z,3.58
2023-04-17T21:35:35.432Z,2.98
2023-04-17T21:45:56.690Z,4.77
2023-04-17T21:55:56.483Z,5.07
2023-04-17T22:05:59.588Z,2.19
2023-04-17T22:15:59.595Z,2.58
2023-04-17T22:25:59.520Z,1.99
2023-04-17T22:35:59.699Z,4.27
2023-04-17T22:45:59.695Z,5.06
2023-04-17T22:55:59.538Z,2.18
2023-04-17T23:05:59.572Z,4.17
2023-04-17T23:15:59.765Z,1.89
2023-04-17T23:25:59.579Z,0.10
2023-04-17T23:35:59.626Z,3.68
2023-04-17T23:46:00.458Z,4.17
2023-04-17T23:56:00.980Z,2.28
